sensor_id;sensor_type;location;lat;lon;timestamp;temperature;humidity
20233;DHT22;37438;55.674;13.074;2023-02-18T00:01:16;6.20;99.90
20233;DHT22;37438;55.674;13.074;2023-02-18T00:04:21;6.30;99.90
20233;DHT22;37438;55.674;13.074;2023-02-18T00:07:25;6.30;99.90
20233;DHT22;37438;55.674;13.074;2023-02-18T00:10:30;6.10;99.90
20233;DHT22;37438;55.674;13.074;2023-02-18T00:13:35;6.20;99.90
20233;DHT22;37438;55.674;13.074;2023-02-18T00:16:41;6.20;99.90
20233;DHT22;37438;55.674;13.074;2023-02-18T00:19:45;6.20;99.90
20233;DHT22;37438;55.674;13.074;2023-02-18T00:22:50;6.20;99.90
20233;DHT22;37438;55.674;13.074;2023-02-18T00:26:11;6.10;99.90
20233;DHT22;37438;55.674;13.074;2023-02-18T00:29:18;6.10;99.90
20233;DHT22;37438;55.674;13.074;2023-02-18T00:32:24;6.10;99.90
20233;DHT22;37438;55.674;13.074;2023-02-18T00:35:28;6.00;99.90
20233;DHT22;37438;55.674;13.074;2023-02-18T00:38:33;6.10;99.90
20233;DHT22;37438;55.674;13.074;2023-02-18T00:41:37;6.20;99.90
20233;DHT22;37438;55.674;13.074;2023-02-18T00:44:42;6.20;99.90
20233;DHT22;37438;55.674;13.074;2023-02-18T00:47:47;6.10;99.90
20233;DHT22;37438;55.674;13.074;2023-02-18T00:50:51;6.00;99.90
20233;DHT22;37438;55.674;13.074;2023-02-18T00:53:58;6.00;99.90
20233;DHT22;37438;55.674;13.074;2023-02-18T00:57:02;6.10;99.90
20233;DHT22;37438;55.674;13.074;2023-02-18T01:00:07;6.00;99.90
20233;DHT22;37438;55.674;13.074;2023-02-18T01:03:12;5.80;99.90
20233;DHT22;37438;55.674;13.074;2023-02-18T01:06:17;5.90;99.90
20233;DHT22;37438;55.674;13.074;2023-02-18T01:09:21;5.90;99.90
20233;DHT22;37438;55.674;13.074;2023-02-18T01:12:28;5.90;99.90
20233;DHT22;37438;55.674;13.074;2023-02-18T01:15:33;5.90;99.90
20233;DHT22;37438;55.674;13.074;2023-02-18T01:18:39;5.70;99.90
20233;DHT22;37438;55.674;13.074;2023-02-18T01:21:43;5.70;99.90
20233;DHT22;37438;55.674;13.074;2023-02-18T01:24:48;5.70;99.90
20233;DHT22;37438;55.674;13.074;2023-02-18T01:27:52;5.70;99.90
20233;DHT22;37438;55.674;13.074;2023-02-18T01:30:57;5.70;99.90
20233;DHT22;37438;55.674;13.074;2023-02-18T01:34:07;5.70;99.90
20233;DHT22;37438;55.674;13.074;2023-02-18T01:37:12;5.70;99.90
20233;DHT22;37438;55.674;13.074;2023-02-18T01:40:24;5.70;99.90
20233;DHT22;37438;55.674;13.074;2023-02-18T01:43:30;5.70;99.90
20233;DHT22;37438;55.674;13.074;2023-02-18T01:46:34;5.80;99.90
20233;DHT22;37438;55.674;13.074;2023-02-18T01:49:39;5.60;99.90
20233;DHT22;37438;55.674;13.074;2023-02-18T01:52:45;5.60;99.90
20233;DHT22;37438;55.674;13.074;2023-02-18T01:55:49;5.60;99.90
20233;DHT22;37438;55.674;13.074;2023-02-18T01:58:56;5.60;99.90
20233;DHT22;37438;55.674;13.074;2023-02-18T02:02:02;5.70;99.90
20233;DHT22;37438;55.674;13.074;2023-02-18T02:05:07;5.60;99.90
20233;DHT22;37438;55.674;13.074;2023-02-18T02:08:13;5.60;99.90
20233;DHT22;37438;55.674;13.074;2023-02-18T02:22:07;5.60;99.90
20233;DHT22;37438;55.674;13.074;2023-02-18T02:35:53;5.50;99.90
20233;DHT22;37438;55.674;13.074;2023-02-18T02:39:13;5.50;99.90
20233;DHT22;37438;55.674;13.074;2023-02-18T02:42:45;5.50;99.90
20233;DHT22;37438;55.674;13.074;2023-02-18T02:46:08;5.50;99.90
20233;DHT22;37438;55.674;13.074;2023-02-18T02:49:18;5.50;99.90
20233;DHT22;37438;55.674;13.074;2023-02-18T02:52:30;5.50;99.90
20233;DHT22;37438;55.674;13.074;2023-02-18T02:55:35;5.40;99.90
20233;DHT22;37438;55.674;13.074;2023-02-18T02:58:40;5.40;99.90
20233;DHT22;37438;55.674;13.074;2023-02-18T03:02:00;5.40;99.90
20233;DHT22;37438;55.674;13.074;2023-02-18T03:18:39;5.30;99.90
20233;DHT22;37438;55.674;13.074;2023-02-18T03:21:50;5.20;99.90
20233;DHT22;37438;55.674;13.074;2023-02-18T03:24:57;5.40;99.90
20233;DHT22;37438;55.674;13.074;2023-02-18T03:28:06;5.30;99.90
20233;DHT22;37438;55.674;13.074;2023-02-18T03:31:18;5.30;99.90
20233;DHT22;37438;55.674;13.074;2023-02-18T03:34:28;5.30;99.90
20233;DHT22;37438;55.674;13.074;2023-02-18T03:37:36;5.30;99.90
20233;DHT22;37438;55.674;13.074;2023-02-18T03:40:42;5.20;99.90
20233;DHT22;37438;55.674;13.074;2023-02-18T03:43:54;5.30;99.90
20233;DHT22;37438;55.674;13.074;2023-02-18T03:47:04;5.30;99.90
20233;DHT22;37438;55.674;13.074;2023-02-18T03:50:09;5.30;99.90
20233;DHT22;37438;55.674;13.074;2023-02-18T03:53:13;5.20;99.90
20233;DHT22;37438;55.674;13.074;2023-02-18T03:56:20;5.30;99.90
20233;DHT22;37438;55.674;13.074;2023-02-18T03:59:25;5.30;99.90
20233;DHT22;37438;55.674;13.074;2023-02-18T04:02:29;5.30;99.90
20233;DHT22;37438;55.674;13.074;2023-02-18T04:05:33;5.20;99.90
20233;DHT22;37438;55.674;13.074;2023-02-18T04:08:39;5.30;99.90
20233;DHT22;37438;55.674;13.074;2023-02-18T04:11:43;5.30;99.90
20233;DHT22;37438;55.674;13.074;2023-02-18T04:14:48;5.30;99.90
20233;DHT22;37438;55.674;13.074;2023-02-18T04:17:55;5.30;99.90
20233;DHT22;37438;55.674;13.074;2023-02-18T04:21:00;5.30;99.90
20233;DHT22;37438;55.674;13.074;2023-02-18T04:24:04;5.30;99.90
20233;DHT22;37438;55.674;13.074;2023-02-18T04:27:09;5.30;99.90
20233;DHT22;37438;55.674;13.074;2023-02-18T04:30:13;5.20;99.90
20233;DHT22;37438;55.674;13.074;2023-02-18T04:33:21;5.20;99.90
20233;DHT22;37438;55.674;13.074;2023-02-18T04:36:26;5.30;99.90
20233;DHT22;37438;55.674;13.074;2023-02-18T04:39:30;5.20;99.90
20233;DHT22;37438;55.674;13.074;2023-02-18T04:42:35;5.20;99.90
20233;DHT22;37438;55.674;13.074;2023-02-18T04:45:40;5.10;99.90
20233;DHT22;37438;55.674;13.074;2023-02-18T04:48:45;5.10;99.90
20233;DHT22;37438;55.674;13.074;2023-02-18T04:51:49;5.10;99.90
20233;DHT22;37438;55.674;13.074;2023-02-18T04:54:53;5.20;99.90
20233;DHT22;37438;55.674;13.074;2023-02-18T04:57:58;5.20;99.90
20233;DHT22;37438;55.674;13.074;2023-02-18T05:01:03;5.20;99.90
20233;DHT22;37438;55.674;13.074;2023-02-18T05:04:08;5.10;99.90
20233;DHT22;37438;55.674;13.074;2023-02-18T05:07:12;5.00;99.90
20233;DHT22;37438;55.674;13.074;2023-02-18T05:10:17;5.00;99.90
20233;DHT22;37438;55.674;13.074;2023-02-18T05:13:21;5.10;99.90
20233;DHT22;37438;55.674;13.074;2023-02-18T05:16:26;5.00;99.90
20233;DHT22;37438;55.674;13.074;2023-02-18T05:19:31;5.00;99.90
20233;DHT22;37438;55.674;13.074;2023-02-18T05:22:35;5.00;99.90
20233;DHT22;37438;55.674;13.074;2023-02-18T05:25:39;5.00;99.90
20233;DHT22;37438;55.674;13.074;2023-02-18T05:28:44;5.00;99.90
20233;DHT22;37438;55.674;13.074;2023-02-18T05:31:48;5.10;99.90
20233;DHT22;37438;55.674;13.074;2023-02-18T05:34:53;5.10;99.90
20233;DHT22;37438;55.674;13.074;2023-02-18T05:37:57;5.10;99.90
20233;DHT22;37438;55.674;13.074;2023-02-18T05:41:02;5.00;99.90
20233;DHT22;37438;55.674;13.074;2023-02-18T05:44:06;5.00;99.90
20233;DHT22;37438;55.674;13.074;2023-02-18T05:47:29;5.00;99.90
20233;DHT22;37438;55.674;13.074;2023-02-18T05:50:34;5.00;99.90
20233;DHT22;37438;55.674;13.074;2023-02-18T05:53:39;5.00;99.90
20233;DHT22;37438;55.674;13.074;2023-02-18T05:56:44;5.10;99.90
20233;DHT22;37438;55.674;13.074;2023-02-18T05:59:49;5.10;99.90
20233;DHT22;37438;55.674;13.074;2023-02-18T06:02:53;5.00;99.90
20233;DHT22;37438;55.674;13.074;2023-02-18T06:05:58;5.00;99.90
20233;DHT22;37438;55.674;13.074;2023-02-18T06:09:03;5.00;99.90
20233;DHT22;37438;55.674;13.074;2023-02-18T06:12:08;5.30;99.90
20233;DHT22;37438;55.674;13.074;2023-02-18T06:15:12;5.10;99.90
20233;DHT22;37438;55.674;13.074;2023-02-18T06:18:17;5.10;99.90
20233;DHT22;37438;55.674;13.074;2023-02-18T06:21:21;5.20;99.90
20233;DHT22;37438;55.674;13.074;2023-02-18T06:24:26;5.20;99.90
20233;DHT22;37438;55.674;13.074;2023-02-18T06:27:30;5.20;99.90
20233;DHT22;37438;55.674;13.074;2023-02-18T06:30:35;5.10;99.90
20233;DHT22;37438;55.674;13.074;2023-02-18T06:33:39;5.10;99.90
20233;DHT22;37438;55.674;13.074;2023-02-18T06:36:44;5.10;99.90
20233;DHT22;37438;55.674;13.074;2023-02-18T06:39:48;5.10;99.90
20233;DHT22;37438;55.674;13.074;2023-02-18T06:42:52;5.10;99.90
20233;DHT22;37438;55.674;13.074;2023-02-18T06:45:57;5.10;99.90
20233;DHT22;37438;55.674;13.074;2023-02-18T06:49:02;5.10;99.90
20233;DHT22;37438;55.674;13.074;2023-02-18T06:52:06;5.00;99.90
20233;DHT22;37438;55.674;13.074;2023-02-18T06:55:11;5.00;99.90
20233;DHT22;37438;55.674;13.074;2023-02-18T06:58:16;5.00;99.90
20233;DHT22;37438;55.674;13.074;2023-02-18T07:01:21;5.00;99.90
20233;DHT22;37438;55.674;13.074;2023-02-18T07:04:25;5.00;99.90
20233;DHT22;37438;55.674;13.074;2023-02-18T07:07:30;5.00;99.90
20233;DHT22;37438;55.674;13.074;2023-02-18T07:10:34;5.00;99.90
20233;DHT22;37438;55.674;13.074;2023-02-18T07:13:39;5.00;99.90
20233;DHT22;37438;55.674;13.074;2023-02-18T07:16:43;5.10;99.90
20233;DHT22;37438;55.674;13.074;2023-02-18T07:19:48;5.10;99.90
20233;DHT22;37438;55.674;13.074;2023-02-18T07:22:53;5.10;99.90
20233;DHT22;37438;55.674;13.074;2023-02-18T07:26:06;5.10;99.90
20233;DHT22;37438;55.674;13.074;2023-02-18T07:29:11;5.10;99.90
20233;DHT22;37438;55.674;13.074;2023-02-18T07:32:17;5.00;99.90
20233;DHT22;37438;55.674;13.074;2023-02-18T07:35:23;5.10;99.90
20233;DHT22;37438;55.674;13.074;2023-02-18T07:38:28;5.20;99.90
20233;DHT22;37438;55.674;13.074;2023-02-18T07:41:32;5.20;99.90
20233;DHT22;37438;55.674;13.074;2023-02-18T07:44:37;5.30;99.90
20233;DHT22;37438;55.674;13.074;2023-02-18T07:47:42;5.40;99.90
20233;DHT22;37438;55.674;13.074;2023-02-18T07:50:48;5.40;99.90
20233;DHT22;37438;55.674;13.074;2023-02-18T07:53:54;5.40;99.90
20233;DHT22;37438;55.674;13.074;2023-02-18T07:56:58;5.40;99.90
20233;DHT22;37438;55.674;13.074;2023-02-18T08:00:03;5.50;99.90
20233;DHT22;37438;55.674;13.074;2023-02-18T08:03:17;5.50;99.90
20233;DHT22;37438;55.674;13.074;2023-02-18T08:06:30;5.50;99.90
20233;DHT22;37438;55.674;13.074;2023-02-18T08:09:36;5.60;99.90
20233;DHT22;37438;55.674;13.074;2023-02-18T08:12:40;5.80;99.90
20233;DHT22;37438;55.674;13.074;2023-02-18T08:15:45;6.00;99.90
20233;DHT22;37438;55.674;13.074;2023-02-18T08:18:50;6.20;99.90
20233;DHT22;37438;55.674;13.074;2023-02-18T08:21:55;6.30;99.90
20233;DHT22;37438;55.674;13.074;2023-02-18T08:25:00;6.40;99.90
20233;DHT22;37438;55.674;13.074;2023-02-18T08:28:05;6.60;99.90
20233;DHT22;37438;55.674;13.074;2023-02-18T08:31:15;6.90;99.90
20233;DHT22;37438;55.674;13.074;2023-02-18T08:34:19;6.90;99.90
20233;DHT22;37438;55.674;13.074;2023-02-18T08:37:24;6.90;99.90
20233;DHT22;37438;55.674;13.074;2023-02-18T08:40:28;6.80;99.90
20233;DHT22;37438;55.674;13.074;2023-02-18T08:43:33;6.90;99.90
20233;DHT22;37438;55.674;13.074;2023-02-18T08:46:38;7.10;99.90
20233;DHT22;37438;55.674;13.074;2023-02-18T08:49:43;7.20;99.90
20233;DHT22;37438;55.674;13.074;2023-02-18T08:52:47;7.30;99.90
20233;DHT22;37438;55.674;13.074;2023-02-18T08:55:52;7.30;99.90
20233;DHT22;37438;55.674;13.074;2023-02-18T08:58:57;7.60;99.90
20233;DHT22;37438;55.674;13.074;2023-02-18T09:02:01;7.10;99.90
20233;DHT22;37438;55.674;13.074;2023-02-18T09:05:06;6.80;99.90
20233;DHT22;37438;55.674;13.074;2023-02-18T09:08:11;6.60;99.90
20233;DHT22;37438;55.674;13.074;2023-02-18T09:11:16;6.60;99.90
20233;DHT22;37438;55.674;13.074;2023-02-18T09:14:21;6.60;99.90
20233;DHT22;37438;55.674;13.074;2023-02-18T09:17:26;6.60;99.90
20233;DHT22;37438;55.674;13.074;2023-02-18T09:20:30;6.60;99.90
20233;DHT22;37438;55.674;13.074;2023-02-18T09:23:35;6.70;99.90
20233;DHT22;37438;55.674;13.074;2023-02-18T09:26:40;6.50;99.90
20233;DHT22;37438;55.674;13.074;2023-02-18T09:29:44;6.50;99.90
20233;DHT22;37438;55.674;13.074;2023-02-18T09:32:49;6.50;99.90
20233;DHT22;37438;55.674;13.074;2023-02-18T09:35:53;6.50;99.90
20233;DHT22;37438;55.674;13.074;2023-02-18T09:38:58;6.30;99.90
20233;DHT22;37438;55.674;13.074;2023-02-18T09:42:05;6.40;99.90
20233;DHT22;37438;55.674;13.074;2023-02-18T09:45:10;6.30;99.90
20233;DHT22;37438;55.674;13.074;2023-02-18T09:48:15;6.30;99.90
20233;DHT22;37438;55.674;13.074;2023-02-18T09:51:20;6.20;99.90
20233;DHT22;37438;55.674;13.074;2023-02-18T09:54:26;6.20;99.90
20233;DHT22;37438;55.674;13.074;2023-02-18T09:57:41;6.30;99.90
20233;DHT22;37438;55.674;13.074;2023-02-18T10:00:58;6.20;99.90
20233;DHT22;37438;55.674;13.074;2023-02-18T10:07:35;6.10;99.90
20233;DHT22;37438;55.674;13.074;2023-02-18T10:10:44;6.10;99.90
20233;DHT22;37438;55.674;13.074;2023-02-18T10:13:49;6.10;99.90
20233;DHT22;37438;55.674;13.074;2023-02-18T10:16:57;6.10;99.90
20233;DHT22;37438;55.674;13.074;2023-02-18T10:20:03;6.20;99.90
20233;DHT22;37438;55.674;13.074;2023-02-18T10:23:13;6.30;99.90
20233;DHT22;37438;55.674;13.074;2023-02-18T10:26:18;6.30;99.90
20233;DHT22;37438;55.674;13.074;2023-02-18T10:29:24;6.40;99.90
20233;DHT22;37438;55.674;13.074;2023-02-18T10:32:36;6.30;99.90
20233;DHT22;37438;55.674;13.074;2023-02-18T10:45:46;6.40;99.90
20233;DHT22;37438;55.674;13.074;2023-02-18T10:52:15;7.10;99.90
20233;DHT22;37438;55.674;13.074;2023-02-18T10:55:40;6.90;99.90
20233;DHT22;37438;55.674;13.074;2023-02-18T10:58:46;6.90;99.90
20233;DHT22;37438;55.674;13.074;2023-02-18T11:01:56;7.00;99.90
20233;DHT22;37438;55.674;13.074;2023-02-18T11:05:11;7.10;99.90
20233;DHT22;37438;55.674;13.074;2023-02-18T11:08:25;7.00;99.90
20233;DHT22;37438;55.674;13.074;2023-02-18T11:11:35;6.90;99.90
20233;DHT22;37438;55.674;13.074;2023-02-18T11:14:46;7.00;99.90
20233;DHT22;37438;55.674;13.074;2023-02-18T11:17:54;7.30;99.90
20233;DHT22;37438;55.674;13.074;2023-02-18T11:21:02;7.30;99.90
20233;DHT22;37438;55.674;13.074;2023-02-18T11:24:15;7.30;99.90
20233;DHT22;37438;55.674;13.074;2023-02-18T11:27:45;7.20;99.90
20233;DHT22;37438;55.674;13.074;2023-02-18T11:30:59;7.20;99.90
20233;DHT22;37438;55.674;13.074;2023-02-18T11:34:05;7.70;99.90
20233;DHT22;37438;55.674;13.074;2023-02-18T11:37:16;8.50;99.90
20233;DHT22;37438;55.674;13.074;2023-02-18T11:40:31;8.80;99.90
20233;DHT22;37438;55.674;13.074;2023-02-18T11:43:36;8.70;99.90
20233;DHT22;37438;55.674;13.074;2023-02-18T11:46:59;8.80;99.90
20233;DHT22;37438;55.674;13.074;2023-02-18T11:56:35;9.50;79.00
20233;DHT22;37438;55.674;13.074;2023-02-18T11:59:39;8.50;97.50
20233;DHT22;37438;55.674;13.074;2023-02-18T12:02:46;8.90;98.60
20233;DHT22;37438;55.674;13.074;2023-02-18T12:05:51;9.70;92.60
20233;DHT22;37438;55.674;13.074;2023-02-18T12:09:18;10.40;72.10
20233;DHT22;37438;55.674;13.074;2023-02-18T12:12:30;9.60;86.40
20233;DHT22;37438;55.674;13.074;2023-02-18T12:15:45;8.80;95.60
20233;DHT22;37438;55.674;13.074;2023-02-18T12:22:42;8.40;99.90
20233;DHT22;37438;55.674;13.074;2023-02-18T12:26:01;8.70;99.90
20233;DHT22;37438;55.674;13.074;2023-02-18T12:29:34;8.90;99.90
20233;DHT22;37438;55.674;13.074;2023-02-18T12:33:40;9.40;91.20
20233;DHT22;37438;55.674;13.074;2023-02-18T12:39:53;8.90;80.50
20233;DHT22;37438;55.674;13.074;2023-02-18T13:01:04;9.80;86.00
20233;DHT22;37438;55.674;13.074;2023-02-18T13:04:11;10.70;69.30
20233;DHT22;37438;55.674;13.074;2023-02-18T13:07:26;11.70;52.60
20233;DHT22;37438;55.674;13.074;2023-02-18T13:10:43;12.60;29.40
20233;DHT22;37438;55.674;13.074;2023-02-18T13:14:08;12.20;17.20
20233;DHT22;37438;55.674;13.074;2023-02-18T13:17:15;10.70;45.20
20233;DHT22;37438;55.674;13.074;2023-02-18T13:20:24;10.10;57.00
20233;DHT22;37438;55.674;13.074;2023-02-18T13:23:38;10.00;61.30
20233;DHT22;37438;55.674;13.074;2023-02-18T13:26:45;9.30;73.50
20233;DHT22;37438;55.674;13.074;2023-02-18T13:30:15;9.80;67.40
20233;DHT22;37438;55.674;13.074;2023-02-18T13:40:37;12.30;21.60
20233;DHT22;37438;55.674;13.074;2023-02-18T13:43:42;12.20;6.70
20233;DHT22;37438;55.674;13.074;2023-02-18T13:46:54;12.70;5.60
20233;DHT22;37438;55.674;13.074;2023-02-18T13:50:22;12.20;6.30
20233;DHT22;37438;55.674;13.074;2023-02-18T13:53:35;13.10;1.00
20233;DHT22;37438;55.674;13.074;2023-02-18T13:56:56;12.70;1.00
20233;DHT22;37438;55.674;13.074;2023-02-18T14:00:05;13.00;1.00
20233;DHT22;37438;55.674;13.074;2023-02-18T14:10:32;12.60;1.00
20233;DHT22;37438;55.674;13.074;2023-02-18T14:13:40;11.70;3.20
20233;DHT22;37438;55.674;13.074;2023-02-18T14:20:30;10.20;25.90
20233;DHT22;37438;55.674;13.074;2023-02-18T14:26:45;10.70;36.50
20233;DHT22;37438;55.674;13.074;2023-02-18T14:29:53;11.20;6.00
20233;DHT22;37438;55.674;13.074;2023-02-18T14:33:00;11.50;3.90
20233;DHT22;37438;55.674;13.074;2023-02-18T14:43:03;11.50;1.00
20233;DHT22;37438;55.674;13.074;2023-02-18T14:49:52;10.00;19.50
20233;DHT22;37438;55.674;13.074;2023-02-18T14:53:03;11.00;9.90
20233;DHT22;37438;55.674;13.074;2023-02-18T14:56:10;11.40;1.00
20233;DHT22;37438;55.674;13.074;2023-02-18T14:59:17;11.30;1.00
20233;DHT22;37438;55.674;13.074;2023-02-18T15:02:25;11.40;1.00
20233;DHT22;37438;55.674;13.074;2023-02-18T15:05:31;11.70;1.00
20233;DHT22;37438;55.674;13.074;2023-02-18T15:08:37;11.50;1.00
20233;DHT22;37438;55.674;13.074;2023-02-18T15:11:49;12.00;1.00
20233;DHT22;37438;55.674;13.074;2023-02-18T15:14:58;11.30;1.00
20233;DHT22;37438;55.674;13.074;2023-02-18T15:18:18;10.90;4.30
20233;DHT22;37438;55.674;13.074;2023-02-18T15:21:41;9.30;24.50
20233;DHT22;37438;55.674;13.074;2023-02-18T15:24:47;9.00;44.90
20233;DHT22;37438;55.674;13.074;2023-02-18T15:27:53;8.20;60.60
20233;DHT22;37438;55.674;13.074;2023-02-18T15:31:00;7.70;82.70
20233;DHT22;37438;55.674;13.074;2023-02-18T15:37:29;7.20;99.90
20233;DHT22;37438;55.674;13.074;2023-02-18T15:40:36;7.00;99.90
20233;DHT22;37438;55.674;13.074;2023-02-18T15:43:52;6.50;99.90
20233;DHT22;37438;55.674;13.074;2023-02-18T15:47:05;6.30;99.90
20233;DHT22;37438;55.674;13.074;2023-02-18T15:50:20;6.20;99.90
20233;DHT22;37438;55.674;13.074;2023-02-18T15:53:25;6.00;99.90
20233;DHT22;37438;55.674;13.074;2023-02-18T15:56:33;5.90;99.90
20233;DHT22;37438;55.674;13.074;2023-02-18T15:59:53;5.80;99.90
20233;DHT22;37438;55.674;13.074;2023-02-18T16:03:04;5.70;99.90
20233;DHT22;37438;55.674;13.074;2023-02-18T16:06:26;5.60;99.90
20233;DHT22;37438;55.674;13.074;2023-02-18T16:09:32;5.50;99.90
20233;DHT22;37438;55.674;13.074;2023-02-18T16:12:38;5.50;99.90
20233;DHT22;37438;55.674;13.074;2023-02-18T16:15:44;5.40;99.90
20233;DHT22;37438;55.674;13.074;2023-02-18T16:18:49;5.30;99.90
20233;DHT22;37438;55.674;13.074;2023-02-18T16:21:53;5.30;99.90
20233;DHT22;37438;55.674;13.074;2023-02-18T16:28:23;5.20;99.90
20233;DHT22;37438;55.674;13.074;2023-02-18T16:31:30;5.10;99.90
20233;DHT22;37438;55.674;13.074;2023-02-18T16:34:35;5.00;99.90
20233;DHT22;37438;55.674;13.074;2023-02-18T16:37:40;5.00;99.90
20233;DHT22;37438;55.674;13.074;2023-02-18T16:40:45;5.00;99.90
20233;DHT22;37438;55.674;13.074;2023-02-18T16:43:50;5.00;99.90
20233;DHT22;37438;55.674;13.074;2023-02-18T16:46:56;4.90;99.90
20233;DHT22;37438;55.674;13.074;2023-02-18T16:50:01;4.90;99.90
20233;DHT22;37438;55.674;13.074;2023-02-18T16:53:05;4.80;99.90
20233;DHT22;37438;55.674;13.074;2023-02-18T16:56:15;4.80;99.90
20233;DHT22;37438;55.674;13.074;2023-02-18T16:59:20;4.80;99.90
20233;DHT22;37438;55.674;13.074;2023-02-18T17:02:25;4.80;99.90
20233;DHT22;37438;55.674;13.074;2023-02-18T17:05:32;4.70;99.90
20233;DHT22;37438;55.674;13.074;2023-02-18T17:08:42;4.70;99.90
20233;DHT22;37438;55.674;13.074;2023-02-18T17:11:49;4.60;99.90
20233;DHT22;37438;55.674;13.074;2023-02-18T17:14:54;4.60;99.90
20233;DHT22;37438;55.674;13.074;2023-02-18T17:17:59;4.60;99.90
20233;DHT22;37438;55.674;13.074;2023-02-18T17:21:05;4.60;99.90
20233;DHT22;37438;55.674;13.074;2023-02-18T17:24:13;4.50;99.90
20233;DHT22;37438;55.674;13.074;2023-02-18T17:27:18;4.50;99.90
20233;DHT22;37438;55.674;13.074;2023-02-18T17:30:22;4.50;99.90
20233;DHT22;37438;55.674;13.074;2023-02-18T17:33:27;4.50;99.90
20233;DHT22;37438;55.674;13.074;2023-02-18T17:36:31;4.50;99.90
20233;DHT22;37438;55.674;13.074;2023-02-18T17:39:36;4.40;99.90
20233;DHT22;37438;55.674;13.074;2023-02-18T17:42:41;4.40;99.90
20233;DHT22;37438;55.674;13.074;2023-02-18T17:45:52;4.40;99.90
20233;DHT22;37438;55.674;13.074;2023-02-18T17:48:57;4.40;99.90
20233;DHT22;37438;55.674;13.074;2023-02-18T17:52:02;4.40;99.90
20233;DHT22;37438;55.674;13.074;2023-02-18T17:55:30;4.40;99.90
20233;DHT22;37438;55.674;13.074;2023-02-18T17:58:34;4.30;99.90
20233;DHT22;37438;55.674;13.074;2023-02-18T18:01:39;4.30;99.90
20233;DHT22;37438;55.674;13.074;2023-02-18T18:04:44;4.30;99.90
20233;DHT22;37438;55.674;13.074;2023-02-18T18:07:49;4.20;99.90
20233;DHT22;37438;55.674;13.074;2023-02-18T18:10:58;4.20;99.90
20233;DHT22;37438;55.674;13.074;2023-02-18T18:14:03;4.20;99.90
20233;DHT22;37438;55.674;13.074;2023-02-18T18:17:10;4.30;99.90
20233;DHT22;37438;55.674;13.074;2023-02-18T18:20:15;4.20;99.90
20233;DHT22;37438;55.674;13.074;2023-02-18T18:23:20;4.20;99.90
20233;DHT22;37438;55.674;13.074;2023-02-18T18:26:26;4.10;99.90
20233;DHT22;37438;55.674;13.074;2023-02-18T18:29:31;4.10;99.90
20233;DHT22;37438;55.674;13.074;2023-02-18T18:32:35;4.10;99.90
20233;DHT22;37438;55.674;13.074;2023-02-18T18:35:40;4.10;99.90
20233;DHT22;37438;55.674;13.074;2023-02-18T18:38:45;4.10;99.90
20233;DHT22;37438;55.674;13.074;2023-02-18T18:41:50;4.20;99.90
20233;DHT22;37438;55.674;13.074;2023-02-18T18:44:55;4.10;99.90
20233;DHT22;37438;55.674;13.074;2023-02-18T18:48:00;4.10;99.90
20233;DHT22;37438;55.674;13.074;2023-02-18T18:51:04;4.10;99.90
20233;DHT22;37438;55.674;13.074;2023-02-18T18:54:10;4.10;99.90
20233;DHT22;37438;55.674;13.074;2023-02-18T18:57:15;4.10;99.90
20233;DHT22;37438;55.674;13.074;2023-02-18T19:00:24;4.00;99.90
20233;DHT22;37438;55.674;13.074;2023-02-18T19:03:30;4.00;99.90
20233;DHT22;37438;55.674;13.074;2023-02-18T19:06:35;4.00;99.90
20233;DHT22;37438;55.674;13.074;2023-02-18T19:09:39;4.00;99.90
20233;DHT22;37438;55.674;13.074;2023-02-18T19:12:44;3.90;99.90
20233;DHT22;37438;55.674;13.074;2023-02-18T19:15:49;3.90;99.90
20233;DHT22;37438;55.674;13.074;2023-02-18T19:18:54;3.90;99.90
20233;DHT22;37438;55.674;13.074;2023-02-18T19:21:59;3.90;99.90
20233;DHT22;37438;55.674;13.074;2023-02-18T19:25:03;3.80;99.90
20233;DHT22;37438;55.674;13.074;2023-02-18T19:28:09;3.80;99.90
20233;DHT22;37438;55.674;13.074;2023-02-18T19:31:16;3.90;99.90
20233;DHT22;37438;55.674;13.074;2023-02-18T19:34:27;3.90;99.90
20233;DHT22;37438;55.674;13.074;2023-02-18T19:37:33;3.90;99.90
20233;DHT22;37438;55.674;13.074;2023-02-18T19:40:38;3.90;99.90
20233;DHT22;37438;55.674;13.074;2023-02-18T19:43:43;3.80;99.90
20233;DHT22;37438;55.674;13.074;2023-02-18T19:46:49;3.80;99.90
20233;DHT22;37438;55.674;13.074;2023-02-18T19:49:57;3.80;99.90
20233;DHT22;37438;55.674;13.074;2023-02-18T19:53:02;3.80;99.90
20233;DHT22;37438;55.674;13.074;2023-02-18T19:56:07;3.80;99.90
20233;DHT22;37438;55.674;13.074;2023-02-18T19:59:11;3.80;99.90
20233;DHT22;37438;55.674;13.074;2023-02-18T20:02:21;3.90;99.90
20233;DHT22;37438;55.674;13.074;2023-02-18T20:05:26;3.70;99.90
20233;DHT22;37438;55.674;13.074;2023-02-18T20:08:31;3.70;99.90
20233;DHT22;37438;55.674;13.074;2023-02-18T20:11:40;3.70;99.90
20233;DHT22;37438;55.674;13.074;2023-02-18T20:14:45;3.70;99.90
20233;DHT22;37438;55.674;13.074;2023-02-18T20:17:50;3.70;99.90
20233;DHT22;37438;55.674;13.074;2023-02-18T20:20:54;3.70;99.90
20233;DHT22;37438;55.674;13.074;2023-02-18T20:23:58;3.70;99.90
20233;DHT22;37438;55.674;13.074;2023-02-18T20:27:03;3.60;99.90
20233;DHT22;37438;55.674;13.074;2023-02-18T20:30:08;3.60;99.90
20233;DHT22;37438;55.674;13.074;2023-02-18T20:33:13;3.60;99.90
20233;DHT22;37438;55.674;13.074;2023-02-18T20:36:18;3.60;99.90
20233;DHT22;37438;55.674;13.074;2023-02-18T20:39:22;3.50;99.90
20233;DHT22;37438;55.674;13.074;2023-02-18T20:42:27;3.50;99.90
20233;DHT22;37438;55.674;13.074;2023-02-18T20:45:31;3.60;99.90
20233;DHT22;37438;55.674;13.074;2023-02-18T20:48:36;3.50;99.90
20233;DHT22;37438;55.674;13.074;2023-02-18T20:51:41;3.40;99.90
20233;DHT22;37438;55.674;13.074;2023-02-18T20:54:45;3.40;99.90
20233;DHT22;37438;55.674;13.074;2023-02-18T20:57:50;3.40;99.90
20233;DHT22;37438;55.674;13.074;2023-02-18T21:01:00;3.40;99.90
20233;DHT22;37438;55.674;13.074;2023-02-18T21:04:04;3.50;99.90
20233;DHT22;37438;55.674;13.074;2023-02-18T21:07:09;3.40;99.90
20233;DHT22;37438;55.674;13.074;2023-02-18T21:10:14;3.40;99.90
20233;DHT22;37438;55.674;13.074;2023-02-18T21:13:19;3.30;99.90
20233;DHT22;37438;55.674;13.074;2023-02-18T21:16:24;3.30;99.90
20233;DHT22;37438;55.674;13.074;2023-02-18T21:19:29;3.30;99.90
20233;DHT22;37438;55.674;13.074;2023-02-18T21:22:34;3.40;99.90
20233;DHT22;37438;55.674;13.074;2023-02-18T21:25:38;3.30;99.90
20233;DHT22;37438;55.674;13.074;2023-02-18T21:28:46;3.30;99.90
20233;DHT22;37438;55.674;13.074;2023-02-18T21:31:51;3.40;99.90
20233;DHT22;37438;55.674;13.074;2023-02-18T21:34:56;3.20;99.90
20233;DHT22;37438;55.674;13.074;2023-02-18T21:38:00;3.30;99.90
20233;DHT22;37438;55.674;13.074;2023-02-18T21:41:05;3.20;99.90
20233;DHT22;37438;55.674;13.074;2023-02-18T21:44:10;3.30;99.90